Chihuahua, México

12:14 PM MST en Enero 24, 2017 (GMT -0700)
Gen Div P A Roberto Fierro | | Change Station

Alt 4459 ft 28.70 °N, 105.96 °W | Updated 34 minutes ago

Parcialmente nublado
Parcialmente nublado
73 ° F
Sensación térmica 73 ° F
N
34
Viento Variable Viento desde SO
Gusts 46 mph

Hoy
Alta -- | Baja -- ° F
--% Posibilidad de precipitaciones
Ayer
Alta -- | Baja -- ° F
Precip. -- pul
Presión 29.86 pul
Visibilidad 8.0 Millas
Nubes Nubes dispersas 20000 ft
Punto de rocío 28 ° F
Humedad 19%
Precipitaciones 0.00 pul
Espesor de la nieve No disponible.
6:55 AM 5:36 PM
Creciente menguante, 10% visible
METAR MMCU 241840Z 22030G40KT 8SM SCT200 23/M02 A2986 RMK 8/009
Presión 29.86 pul
Visibilidad 8.0 Millas
Nubes Nubes dispersas 20000 ft
Punto de rocío 28 ° F
Humedad 19%
Precipitaciones 0.00 pul
Espesor de la nieve No disponible.
6:55 AM 5:36 PM
Creciente menguante, 10% visible
METAR MMCU 241840Z 22030G40KT 8SM SCT200 23/M02 A2986 RMK 8/009

Get Your Daily Forecast Email!

Thanks for signing up!

Be on the lookout for a verification email in your inbox.

You'll start receiving the daily forecast at 8 AM.

×

10-Day Weather Forecast

No radar image for this location.
×

Almanac

Astronomía

Jan. 24, 2017 Salida Puesta
Hora real
Crepúsculo civil
Crepúsculo náutico
Crepúsculo astronómico
Luna
Horas de luz
Horas de luz
Tomorrow will be .
, % of the Moon is Illuminated

Extremos de hoy

Máximos del país Bajas del país

Community

WunderPhotos

Upload Photos

1,962,540 ¡fotos cargadas!

WunderBlog® & News

Nearby

Calidad del aire

  Calidad del aire Índice AQ Contaminante
Not available.

Grosos de nieve

Estación Profundido Altura

Actividad de terremotos

Ciudad Distance Mag. Tiempo y dato
Magnitud mínima muestra es 2,5.

Temperaturas de aguas costeras

Lugar Temperatura

Stations

Estaciones meteorológicas cercanas

Ubicación de la estación Temp. Vientos helados Punto de rocío Humedad Viento Precip. Alt Actualizado Tipo